createdAt,value
2018-11-04T00:01:05.845Z,99.60
2018-11-04T00:03:08.928Z,99.90
2018-11-04T00:05:11.987Z,99.90
2018-11-04T00:07:15.123Z,99.90
2018-11-04T00:09:18.080Z,99.50
2018-11-04T00:11:21.183Z,99.40
2018-11-04T00:13:24.361Z,99.50
2018-11-04T00:15:27.320Z,99.40
2018-11-04T00:17:30.294Z,99.50
2018-11-04T00:19:34.882Z,99.80
2018-11-04T00:21:37.981Z,99.60
2018-11-04T00:23:40.971Z,99.70
2018-11-04T00:25:44.015Z,99.30
2018-11-04T00:27:46.995Z,99.50
2018-11-04T00:29:50.257Z,99.40
2018-11-04T00:31:53.242Z,99.60
2018-11-04T00:33:56.200Z,99.70
2018-11-04T00:35:59.554Z,99.90
2018-11-04T00:38:04.274Z,99.90
2018-11-04T00:40:07.707Z,99.90
2018-11-04T00:42:10.840Z,99.90
2018-11-04T00:44:13.847Z,99.90
2018-11-04T00:46:16.994Z,99.90
2018-11-04T00:48:20.008Z,99.80
2018-11-04T00:50:23.111Z,99.90
2018-11-04T00:52:26.248Z,99.90
2018-11-04T00:54:29.207Z,99.90
2018-11-04T00:56:34.080Z,99.90
2018-11-04T00:58:37.123Z,99.90
2018-11-04T01:00:40.326Z,99.90
2018-11-04T01:02:44.366Z,99.90
2018-11-04T01:04:47.396Z,99.90
2018-11-04T01:06:50.653Z,99.90
2018-11-04T01:08:53.687Z,99.90
2018-11-04T01:10:57.156Z,99.90
2018-11-04T01:13:00.129Z,99.90
2018-11-04T01:15:05.939Z,99.90
2018-11-04T01:17:09.739Z,99.90
2018-11-04T01:19:12.737Z,99.90
2018-11-04T01:21:16.037Z,99.90
2018-11-04T01:23:18.905Z,99.90
2018-11-04T01:25:22.087Z,99.90
2018-11-04T01:27:25.176Z,99.90
2018-11-04T01:29:28.306Z,99.90
2018-11-04T01:31:32.850Z,99.90
2018-11-04T01:33:36.314Z,99.90
2018-11-04T01:35:39.284Z,99.90
2018-11-04T01:37:42.730Z,99.90
2018-11-04T01:39:45.680Z,99.90
2018-11-04T01:41:48.711Z,99.90
2018-11-04T01:43:51.766Z,99.90
2018-11-04T01:45:54.724Z,99.90
2018-11-04T01:47:57.733Z,99.90
2018-11-04T01:50:00.733Z,99.90
2018-11-04T01:52:05.454Z,99.90
2018-11-04T01:54:08.396Z,99.90
2018-11-04T01:56:11.679Z,99.90
2018-11-04T01:58:14.734Z,99.90
2018-11-04T02:00:17.783Z,99.90
2018-11-04T02:02:20.832Z,99.90
2018-11-04T02:04:23.892Z,99.90
2018-11-04T02:06:27.405Z,99.90
2018-11-04T02:08:30.439Z,99.90
2018-11-04T02:10:34.761Z,99.90
2018-11-04T02:12:38.319Z,99.90
2018-11-04T02:14:41.632Z,99.90
2018-11-04T02:16:44.615Z,99.90
2018-11-04T02:18:47.710Z,99.90
2018-11-04T02:20:52.013Z,99.90
2018-11-04T02:22:54.993Z,99.90
2018-11-04T02:24:58.192Z,99.90
2018-11-04T02:27:01.196Z,99.90
2018-11-04T02:29:05.522Z,99.90
2018-11-04T02:31:08.532Z,99.90
2018-11-04T02:33:11.567Z,99.90
2018-11-04T02:35:15.541Z,99.90
2018-11-04T02:37:18.630Z,99.90
2018-11-04T02:39:22.094Z,99.90
2018-11-04T02:41:25.090Z,99.90
2018-11-04T02:43:28.052Z,99.90
2018-11-04T02:45:31.022Z,99.90
2018-11-04T02:47:35.497Z,99.90
2018-11-04T02:49:38.514Z,99.90
2018-11-04T02:51:41.533Z,99.90
2018-11-04T02:53:44.544Z,99.90
2018-11-04T02:55:47.558Z,99.90
2018-11-04T02:57:50.844Z,99.90
2018-11-04T02:59:53.807Z,99.90
2018-11-04T03:01:56.871Z,99.90
2018-11-04T03:03:59.881Z,99.90
2018-11-04T03:06:04.582Z,99.90
2018-11-04T03:08:07.581Z,99.90
2018-11-04T03:10:12.335Z,99.90
2018-11-04T03:12:15.381Z,99.90
2018-11-04T03:14:18.379Z,99.90
2018-11-04T03:16:21.463Z,99.90
2018-11-04T03:18:24.453Z,99.90
2018-11-04T03:20:27.487Z,99.90
2018-11-04T03:22:30.616Z,99.90
2018-11-04T03:24:35.025Z,99.90
2018-11-04T03:26:38.078Z,99.90
2018-11-04T03:28:41.137Z,99.90
2018-11-04T03:30:44.139Z,99.90
2018-11-04T03:32:47.150Z,99.90
2018-11-04T03:34:50.155Z,99.90
2018-11-04T03:36:53.131Z,99.90
2018-11-04T03:38:56.185Z,99.90
2018-11-04T03:40:59.291Z,99.90
2018-11-04T03:43:03.836Z,99.90
2018-11-04T03:45:07.722Z,99.90
2018-11-04T03:47:10.705Z,99.90
2018-11-04T03:49:13.707Z,99.90
2018-11-04T03:51:16.978Z,99.90
2018-11-04T03:53:20.207Z,99.90
2018-11-04T03:55:23.371Z,99.90
2018-11-04T03:57:26.361Z,99.90
2018-11-04T03:59:29.470Z,99.90
2018-11-04T04:01:34.123Z,99.90
2018-11-04T04:03:37.136Z,99.90
2018-11-04T04:05:40.148Z,99.90
2018-11-04T04:07:43.142Z,99.90
2018-11-04T04:09:46.157Z,99.90
2018-11-04T04:11:49.289Z,99.90
2018-11-04T04:13:52.270Z,99.90
2018-11-04T04:15:55.223Z,99.90
2018-11-04T04:17:58.280Z,99.90
2018-11-04T04:20:01.323Z,99.90
2018-11-04T04:22:05.770Z,99.90
2018-11-04T04:24:08.778Z,99.90
2018-11-04T04:26:12.313Z,99.90
2018-11-04T04:28:15.364Z,99.90
2018-11-04T04:30:18.689Z,99.90
2018-11-04T04:32:21.706Z,99.90
2018-11-04T04:34:24.720Z,99.90
2018-11-04T04:36:27.755Z,99.90
2018-11-04T04:38:30.799Z,99.90
2018-11-04T04:40:35.235Z,99.90
2018-11-04T04:42:38.267Z,99.90
2018-11-04T04:44:41.255Z,99.90
2018-11-04T04:46:44.278Z,99.90
2018-11-04T04:48:47.280Z,99.90
2018-11-04T04:50:50.282Z,99.90
2018-11-04T04:52:53.311Z,99.90
2018-11-04T04:54:56.357Z,99.90
2018-11-04T04:56:59.656Z,99.90
2018-11-04T04:59:04.397Z,99.90
2018-11-04T05:01:07.453Z,99.90
2018-11-04T05:03:10.848Z,99.90
2018-11-04T05:05:13.880Z,99.90
2018-11-04T05:07:16.904Z,99.90
2018-11-04T05:09:20.190Z,99.90
2018-11-04T05:11:23.217Z,99.90
2018-11-04T05:13:26.254Z,99.90
2018-11-04T05:15:29.328Z,99.90
2018-11-04T05:17:33.936Z,99.90
2018-11-04T05:19:37.017Z,99.90
2018-11-04T05:21:40.165Z,99.90
2018-11-04T05:23:43.326Z,99.90
2018-11-04T05:25:46.808Z,99.90
2018-11-04T05:27:49.929Z,99.90
2018-11-04T05:29:52.926Z,99.90
2018-11-04T05:31:56.098Z,99.90
2018-11-04T05:33:59.114Z,99.90
2018-11-04T05:36:03.705Z,99.90
2018-11-04T05:38:07.259Z,99.90
2018-11-04T05:40:10.325Z,99.90
2018-11-04T05:42:13.407Z,99.90
2018-11-04T05:44:16.414Z,99.90
2018-11-04T05:46:19.498Z,99.90
2018-11-04T05:48:22.527Z,99.90
2018-11-04T05:50:25.587Z,99.90
2018-11-04T05:52:28.779Z,99.90
2018-11-04T05:54:33.643Z,99.90
2018-11-04T05:56:36.647Z,99.90
2018-11-04T05:58:39.727Z,99.90
2018-11-04T06:00:42.831Z,99.90
2018-11-04T06:02:45.821Z,99.90
2018-11-04T06:04:48.927Z,99.90
2018-11-04T06:06:53.065Z,99.90
2018-11-04T06:08:56.075Z,99.90
2018-11-04T06:10:59.068Z,99.90
2018-11-04T06:13:03.994Z,99.90
2018-11-04T06:15:07.925Z,99.90
2018-11-04T06:17:10.948Z,99.90
2018-11-04T06:19:14.481Z,99.90
2018-11-04T06:21:17.483Z,99.90
2018-11-04T06:23:20.487Z,99.90
2018-11-04T06:25:23.878Z,99.90
2018-11-04T06:27:27.002Z,99.90
2018-11-04T06:29:29.986Z,99.90
2018-11-04T06:31:34.783Z,99.90
2018-11-04T06:33:38.073Z,99.90
2018-11-04T06:35:41.159Z,99.90
2018-11-04T06:37:44.325Z,99.90
2018-11-04T06:39:47.417Z,99.90
2018-11-04T06:41:50.463Z,99.90
2018-11-04T06:43:53.498Z,99.90
2018-11-04T06:45:56.539Z,99.90
2018-11-04T06:47:59.698Z,99.90
2018-11-04T06:50:04.302Z,99.90
2018-11-04T06:52:07.366Z,99.90
2018-11-04T06:54:10.618Z,99.90
2018-11-04T06:56:13.880Z,99.90
2018-11-04T06:58:17.058Z,99.90
2018-11-04T07:00:20.026Z,99.90
2018-11-04T07:02:23.041Z,99.90
2018-11-04T07:04:27.842Z,99.90
2018-11-04T07:06:30.859Z,99.90
2018-11-04T07:08:35.876Z,99.90
2018-11-04T07:10:39.281Z,99.90
2018-11-04T07:12:42.585Z,99.90
2018-11-04T07:14:45.595Z,99.90
2018-11-04T07:16:48.673Z,99.90
2018-11-04T07:18:52.420Z,99.90
2018-11-04T07:20:55.487Z,99.90
2018-11-04T07:22:58.573Z,99.90
2018-11-04T07:25:01.587Z,99.90
2018-11-04T07:27:06.625Z,99.90
2018-11-04T07:29:10.149Z,99.90
2018-11-04T07:31:13.188Z,99.90
2018-11-04T07:33:16.187Z,99.90
2018-11-04T07:35:19.256Z,99.90
2018-11-04T07:37:22.340Z,99.90
2018-11-04T07:39:25.607Z,99.90
2018-11-04T07:41:28.715Z,99.90
2018-11-04T07:43:33.381Z,99.90
2018-11-04T07:45:36.395Z,99.90
2018-11-04T07:47:39.490Z,99.90
2018-11-04T07:49:42.730Z,99.90
2018-11-04T07:51:45.694Z,99.90
2018-11-04T07:53:48.716Z,99.90
2018-11-04T07:55:51.747Z,99.90
2018-11-04T07:57:54.731Z,99.90
2018-11-04T07:59:57.756Z,99.90
2018-11-04T08:02:00.775Z,99.90
2018-11-04T08:04:05.403Z,99.90
2018-11-04T08:06:08.399Z,99.90
2018-11-04T08:08:11.414Z,99.90
2018-11-04T08:10:14.449Z,99.90
2018-11-04T08:12:17.482Z,99.90
2018-11-04T08:14:20.484Z,99.90
2018-11-04T08:16:23.486Z,99.90
2018-11-04T08:18:26.787Z,99.90
2018-11-04T08:20:29.787Z,99.90
2018-11-04T08:22:34.437Z,99.90
2018-11-04T08:24:37.802Z,99.90
2018-11-04T08:26:40.790Z,99.90
2018-11-04T08:28:43.825Z,99.90
2018-11-04T08:30:46.851Z,99.90
2018-11-04T08:32:49.838Z,99.90
2018-11-04T08:34:53.057Z,99.90
2018-11-04T08:36:56.011Z,99.90
2018-11-04T08:38:59.055Z,99.90
2018-11-04T08:41:03.370Z,99.90
2018-11-04T08:43:06.456Z,99.90
2018-11-04T08:45:09.587Z,99.90
2018-11-04T08:47:12.616Z,99.90
2018-11-04T08:49:15.548Z,99.90
2018-11-04T08:51:18.571Z,99.90
2018-11-04T08:53:21.660Z,99.90
2018-11-04T08:55:24.623Z,99.90
2018-11-04T08:57:27.640Z,99.90
2018-11-04T08:59:30.675Z,99.90
2018-11-04T09:01:34.996Z,99.90
2018-11-04T09:03:38.060Z,99.90
2018-11-04T09:05:41.111Z,99.90
2018-11-04T09:07:44.151Z,99.90
2018-11-04T09:09:47.202Z,99.90
2018-11-04T09:11:50.234Z,99.90
2018-11-04T09:13:53.246Z,99.90
2018-11-04T09:15:56.274Z,99.60
2018-11-04T09:17:59.207Z,99.60
2018-11-04T09:20:03.701Z,99.50
2018-11-04T09:22:07.096Z,99.30
2018-11-04T09:24:10.118Z,99.00
2018-11-04T09:26:14.278Z,98.90
2018-11-04T09:28:17.285Z,99.10
2018-11-04T09:30:20.332Z,99.00
2018-11-04T09:32:23.354Z,99.10
2018-11-04T09:34:26.467Z,98.80
2018-11-04T09:36:29.624Z,98.50
2018-11-04T09:38:34.603Z,98.70
2018-11-04T09:40:37.634Z,98.90
2018-11-04T09:42:40.800Z,98.80
2018-11-04T09:44:44.202Z,98.90
2018-11-04T09:46:47.208Z,98.80
2018-11-04T09:48:50.194Z,98.50
2018-11-04T09:50:53.201Z,98.80
2018-11-04T09:52:56.231Z,98.60
2018-11-04T09:54:59.232Z,98.60
2018-11-04T09:57:03.610Z,98.50
2018-11-04T09:59:06.679Z,98.40
2018-11-04T10:01:09.664Z,98.50
2018-11-04T10:03:12.687Z,98.40
2018-11-04T10:05:15.644Z,98.10
2018-11-04T10:07:18.741Z,98.00
2018-11-04T10:09:21.755Z,97.90
2018-11-04T10:11:24.761Z,98.30
2018-11-04T10:13:27.889Z,98.40
2018-11-04T10:15:30.812Z,97.90
2018-11-04T10:17:35.661Z,98.00
2018-11-04T10:19:39.113Z,97.80
2018-11-04T10:21:42.097Z,97.80
2018-11-04T10:23:45.152Z,97.70
2018-11-04T10:25:48.198Z,97.70
2018-11-04T10:27:51.215Z,97.40
2018-11-04T10:29:54.282Z,97.60
2018-11-04T10:31:57.255Z,97.50
2018-11-04T10:34:00.368Z,98.10
2018-11-04T10:36:05.091Z,97.40
2018-11-04T10:38:08.127Z,97.30
2018-11-04T10:40:11.867Z,97.10
2018-11-04T10:42:15.047Z,97.20
2018-11-04T10:44:18.635Z,97.30
2018-11-04T10:46:21.752Z,97.50
2018-11-04T10:48:24.862Z,97.30
2018-11-04T10:50:28.228Z,97.20
2018-11-04T10:52:31.293Z,97.20
2018-11-04T10:54:35.759Z,97.10
2018-11-04T10:56:38.941Z,97.20
2018-11-04T10:58:41.972Z,97.10
2018-11-04T11:00:50.659Z,97.30
2018-11-04T11:02:53.685Z,97.20
2018-11-04T11:04:56.752Z,97.30
2018-11-04T11:06:59.832Z,97.30
2018-11-04T11:09:04.407Z,97.30
2018-11-04T11:11:07.461Z,97.20
2018-11-04T11:13:10.480Z,97.10
2018-11-04T11:15:13.599Z,97.40
2018-11-04T11:17:16.573Z,97.20
2018-11-04T11:19:19.556Z,97.40
2018-11-04T11:21:22.617Z,97.50
2018-11-04T11:23:25.637Z,97.10
2018-11-04T11:25:28.703Z,97.20
2018-11-04T11:27:34.231Z,96.90
2018-11-04T11:29:37.227Z,97.00
2018-11-04T11:31:40.715Z,97.20
2018-11-04T11:33:43.960Z,97.30
2018-11-04T11:35:47.049Z,96.90
2018-11-04T11:37:50.087Z,97.00
2018-11-04T11:39:53.376Z,97.40
2018-11-04T11:41:56.994Z,96.80
2018-11-04T11:43:59.979Z,97.00
2018-11-04T11:46:05.610Z,97.00
2018-11-04T11:48:09.437Z,96.90
2018-11-04T11:50:12.620Z,96.80
2018-11-04T11:52:16.052Z,96.80
2018-11-04T11:54:19.945Z,96.90
2018-11-04T11:56:24.020Z,96.70
2018-11-04T11:58:28.236Z,96.90
2018-11-04T12:00:33.623Z,96.80
2018-11-04T12:02:38.142Z,96.60
2018-11-04T12:04:42.459Z,97.00
2018-11-04T12:06:46.181Z,96.70
2018-11-04T12:08:50.075Z,96.70
2018-11-04T12:10:53.968Z,96.50
2018-11-04T12:12:58.045Z,96.60
2018-11-04T12:15:03.867Z,96.70
2018-11-04T12:17:07.727Z,96.80
2018-11-04T12:19:11.964Z,96.80
2018-11-04T12:21:15.821Z,96.60
2018-11-04T12:23:19.764Z,96.90
2018-11-04T12:25:23.832Z,96.80
2018-11-04T12:27:27.698Z,96.30
2018-11-04T12:29:33.379Z,96.60
2018-11-04T12:31:37.201Z,96.60
2018-11-04T12:33:41.316Z,96.40
2018-11-04T12:35:45.252Z,96.50
2018-11-04T12:37:49.138Z,96.50
2018-11-04T12:39:53.026Z,96.50
2018-11-04T12:41:57.076Z,96.60
2018-11-04T12:44:00.970Z,96.70
2018-11-04T12:46:06.039Z,96.60
2018-11-04T12:48:09.830Z,96.40
2018-11-04T12:50:14.070Z,96.50
2018-11-04T12:52:18.157Z,96.50
2018-11-04T12:54:22.193Z,96.60
2018-11-04T12:56:26.169Z,96.50
2018-11-04T12:58:29.193Z,96.80
2018-11-04T13:00:33.792Z,96.80
2018-11-04T13:02:36.881Z,96.80
2018-11-04T13:04:39.909Z,96.90
2018-11-04T13:06:42.900Z,96.80
2018-11-04T13:08:45.895Z,96.80
2018-11-04T13:10:48.916Z,96.80
2018-11-04T13:12:51.937Z,96.90
2018-11-04T13:14:55.003Z,96.80
2018-11-04T13:16:58.041Z,97.00
2018-11-04T13:19:01.141Z,96.90
2018-11-04T13:21:06.095Z,96.90
2018-11-04T13:23:09.131Z,97.20
2018-11-04T13:25:12.150Z,97.10
2018-11-04T13:27:15.177Z,97.10
2018-11-04T13:29:18.336Z,97.10
2018-11-04T13:31:21.468Z,97.00
2018-11-04T13:33:24.528Z,97.10
2018-11-04T13:35:27.511Z,97.00
2018-11-04T13:37:30.632Z,97.20
2018-11-04T13:39:35.023Z,97.10
2018-11-04T13:41:38.345Z,97.20
2018-11-04T13:43:41.379Z,97.10
2018-11-04T13:45:44.483Z,97.20
2018-11-04T13:47:47.509Z,97.20
2018-11-04T13:49:50.799Z,97.20
2018-11-04T13:51:53.892Z,97.40
2018-11-04T13:53:56.927Z,97.60
2018-11-04T13:55:59.950Z,97.60
2018-11-04T13:58:03.426Z,97.40
2018-11-04T14:00:11.094Z,97.50
2018-11-04T14:02:14.157Z,97.50
2018-11-04T14:04:17.156Z,97.40
2018-11-04T14:06:20.205Z,97.40
2018-11-04T14:08:23.653Z,97.30
2018-11-04T14:10:26.681Z,97.50
2018-11-04T14:12:30.271Z,97.30
2018-11-04T14:14:35.411Z,97.40
2018-11-04T14:16:38.550Z,97.40
2018-11-04T14:18:41.796Z,97.30
2018-11-04T14:20:44.889Z,97.60
2018-11-04T14:22:48.010Z,97.50
2018-11-04T14:24:51.113Z,97.50
2018-11-04T14:26:54.285Z,97.50
2018-11-04T14:28:57.359Z,97.60
2018-11-04T14:31:00.546Z,97.60
2018-11-04T14:33:05.198Z,97.50
2018-11-04T14:35:09.261Z,97.60
2018-11-04T14:37:12.623Z,97.60
2018-11-04T14:39:15.574Z,97.90
2018-11-04T14:41:18.663Z,97.90
2018-11-04T14:43:22.393Z,98.00
2018-11-04T14:45:25.419Z,98.00
2018-11-04T14:47:28.490Z,98.10
2018-11-04T14:49:36.246Z,98.00
2018-11-04T14:51:39.693Z,98.00
2018-11-04T14:53:42.931Z,97.90
2018-11-04T14:55:46.190Z,98.00
2018-11-04T14:57:49.206Z,98.00
2018-11-04T14:59:52.328Z,98.10
2018-11-04T15:01:55.504Z,98.30
2018-11-04T15:03:58.485Z,98.40
2018-11-04T15:06:03.537Z,98.50
2018-11-04T15:08:06.720Z,98.70
2018-11-04T15:10:11.938Z,98.80
2018-11-04T15:12:15.038Z,98.80
2018-11-04T15:14:18.027Z,98.80
2018-11-04T15:16:21.279Z,98.90
2018-11-04T15:18:24.377Z,98.90
2018-11-04T15:20:27.619Z,99.30
2018-11-04T15:22:30.688Z,99.10
2018-11-04T15:24:35.529Z,99.10
2018-11-04T15:26:38.728Z,99.30
2018-11-04T15:28:42.434Z,99.30
2018-11-04T15:30:45.512Z,99.30
2018-11-04T15:32:48.573Z,99.50
2018-11-04T15:34:51.771Z,99.60
2018-11-04T15:36:54.691Z,99.60
2018-11-04T15:38:57.744Z,99.40
2018-11-04T15:41:00.853Z,99.40
2018-11-04T15:43:05.554Z,99.50
2018-11-04T15:45:10.264Z,99.80
2018-11-04T15:47:13.299Z,99.70
2018-11-04T15:49:16.359Z,99.90
2018-11-04T15:51:19.359Z,99.80
2018-11-04T15:53:22.695Z,99.90
2018-11-04T15:55:26.684Z,99.80
2018-11-04T15:57:30.707Z,99.90
2018-11-04T15:59:35.995Z,99.80
2018-11-04T16:01:39.073Z,99.90
2018-11-04T16:03:42.843Z,99.90
2018-11-04T16:05:45.928Z,99.90
2018-11-04T16:07:50.119Z,99.90
2018-11-04T16:09:53.191Z,99.90
2018-11-04T16:11:56.278Z,99.90
2018-11-04T16:13:59.305Z,99.90
2018-11-04T16:16:03.732Z,99.90
2018-11-04T16:18:06.844Z,99.90
2018-11-04T16:20:11.150Z,99.90
2018-11-04T16:22:14.467Z,99.90
2018-11-04T16:24:17.480Z,99.90
2018-11-04T16:26:20.619Z,99.90
2018-11-04T16:28:23.695Z,99.90
2018-11-04T16:30:26.686Z,99.90
2018-11-04T16:32:29.707Z,99.90
2018-11-04T16:34:34.068Z,99.90
2018-11-04T16:36:37.056Z,99.90
2018-11-04T16:38:40.089Z,99.90
2018-11-04T16:40:43.178Z,99.90
2018-11-04T16:42:46.208Z,99.90
2018-11-04T16:44:49.208Z,99.90
2018-11-04T16:46:52.267Z,99.90
2018-11-04T16:48:55.327Z,99.90
2018-11-04T16:50:58.439Z,99.90
2018-11-04T16:53:01.543Z,99.90
2018-11-04T16:55:06.470Z,99.90
2018-11-04T16:57:10.275Z,99.90
2018-11-04T16:59:13.759Z,99.90
2018-11-04T17:01:16.752Z,99.90
2018-11-04T17:03:19.773Z,99.90
2018-11-04T17:05:22.938Z,99.90
2018-11-04T17:07:26.106Z,99.90
2018-11-04T17:09:29.929Z,99.90
2018-11-04T17:11:34.591Z,99.90
2018-11-04T17:13:37.663Z,99.90
2018-11-04T17:15:40.733Z,99.90
2018-11-04T17:17:44.838Z,99.90
2018-11-04T17:19:48.002Z,99.90
2018-11-04T17:21:51.060Z,99.90
2018-11-04T17:23:54.111Z,99.90
2018-11-04T17:25:57.248Z,99.90
2018-11-04T17:28:00.576Z,99.90
2018-11-04T17:30:08.615Z,99.90
2018-11-04T17:32:11.650Z,99.90
2018-11-04T17:34:14.816Z,99.90
2018-11-04T17:36:17.969Z,99.90
2018-11-04T17:38:20.980Z,99.90
2018-11-04T17:40:24.054Z,99.90
2018-11-04T17:42:27.070Z,99.90
2018-11-04T17:44:30.232Z,99.90
2018-11-04T17:46:35.138Z,99.90
2018-11-04T17:48:38.276Z,99.90
2018-11-04T17:50:41.423Z,99.90
2018-11-04T17:52:44.695Z,99.90
2018-11-04T17:54:47.827Z,99.90
2018-11-04T17:56:50.875Z,99.90
2018-11-04T17:58:55.489Z,99.90
2018-11-04T18:00:58.560Z,99.90
2018-11-04T18:03:02.831Z,99.90
2018-11-04T18:05:07.081Z,99.90
2018-11-04T18:07:10.133Z,99.90
2018-11-04T18:09:13.554Z,99.90
2018-11-04T18:11:16.598Z,99.90
2018-11-04T18:13:19.599Z,99.90
2018-11-04T18:15:23.024Z,99.90
2018-11-04T18:17:26.015Z,99.90
2018-11-04T18:19:29.260Z,99.90
2018-11-04T18:21:34.078Z,99.90
2018-11-04T18:23:37.188Z,99.90
2018-11-04T18:25:40.263Z,99.90
2018-11-04T18:27:43.557Z,99.90
2018-11-04T18:29:46.587Z,99.90
2018-11-04T18:31:50.572Z,99.90
2018-11-04T18:33:54.045Z,99.90
2018-11-04T18:35:57.056Z,99.90
2018-11-04T18:38:00.103Z,99.90
2018-11-04T18:40:05.899Z,99.90
2018-11-04T18:42:09.249Z,99.90
2018-11-04T18:44:12.241Z,99.90
2018-11-04T18:46:15.450Z,99.90
2018-11-04T18:48:18.521Z,99.90
2018-11-04T18:50:21.717Z,99.90
2018-11-04T18:52:24.747Z,99.90
2018-11-04T18:54:27.928Z,99.90
2018-11-04T18:56:31.240Z,99.90
2018-11-04T18:58:35.620Z,99.90
2018-11-04T19:00:38.734Z,99.90
2018-11-04T19:02:41.908Z,99.90
2018-11-04T19:04:45.024Z,99.90
2018-11-04T19:06:48.028Z,99.90
2018-11-04T19:08:51.129Z,99.90
2018-11-04T19:10:54.164Z,99.90
2018-11-04T19:12:57.328Z,99.90
2018-11-04T19:15:00.375Z,99.90
2018-11-04T19:17:04.730Z,99.90
2018-11-04T19:19:07.871Z,99.90
2018-11-04T19:21:10.939Z,99.90
2018-11-04T19:23:14.067Z,99.90
2018-11-04T19:25:17.155Z,99.90
2018-11-04T19:27:20.149Z,99.90
2018-11-04T19:29:23.163Z,99.90
2018-11-04T19:31:26.385Z,99.90
2018-11-04T19:33:29.315Z,99.90
2018-11-04T19:35:33.932Z,99.90
2018-11-04T19:37:37.261Z,99.90
2018-11-04T19:39:40.352Z,99.90
2018-11-04T19:41:43.414Z,99.90
2018-11-04T19:43:46.591Z,99.90
2018-11-04T19:45:49.876Z,99.90
2018-11-04T19:47:53.024Z,99.90
2018-11-04T19:49:56.076Z,99.90
2018-11-04T19:51:59.072Z,99.90
2018-11-04T19:54:03.627Z,99.90
2018-11-04T19:56:07.275Z,99.90
2018-11-04T19:58:10.286Z,99.90
2018-11-04T20:00:13.661Z,99.90
2018-11-04T20:02:16.793Z,99.90
2018-11-04T20:04:19.803Z,99.90
2018-11-04T20:06:22.897Z,99.90
2018-11-04T20:08:26.036Z,99.90
2018-11-04T20:10:29.190Z,99.90
2018-11-04T20:12:37.851Z,99.90
2018-11-04T20:14:40.882Z,99.90
2018-11-04T20:16:44.751Z,99.90
2018-11-04T20:18:53.360Z,99.90
2018-11-04T20:20:56.348Z,99.90
2018-11-04T20:22:59.430Z,99.90
2018-11-04T20:25:08.163Z,99.90
2018-11-04T20:27:11.317Z,99.90
2018-11-04T20:29:14.679Z,99.90
2018-11-04T20:31:23.380Z,99.90
2018-11-04T20:33:26.440Z,99.90
2018-11-04T20:35:29.478Z,99.90
2018-11-04T20:37:36.315Z,99.90
2018-11-04T20:39:44.908Z,99.90
2018-11-04T20:41:47.916Z,99.90
2018-11-04T20:43:50.900Z,99.90
2018-11-04T20:45:54.017Z,99.90
2018-11-04T20:48:02.795Z,99.90
2018-11-04T20:50:12.106Z,99.90
2018-11-04T20:52:15.535Z,99.90
2018-11-04T20:54:18.615Z,99.90
2018-11-04T20:56:27.350Z,99.90
2018-11-04T20:58:30.444Z,99.90
2018-11-04T21:00:34.988Z,99.90
2018-11-04T21:02:39.397Z,99.90
2018-11-04T21:04:42.226Z,99.90
2018-11-04T21:06:45.224Z,99.90
2018-11-04T21:08:48.278Z,99.90
2018-11-04T21:10:51.289Z,99.90
2018-11-04T21:12:54.315Z,99.90
2018-11-04T21:14:57.496Z,99.90
2018-11-04T21:17:00.583Z,99.90
2018-11-04T21:19:05.289Z,99.90
2018-11-04T21:21:08.658Z,99.90
2018-11-04T21:23:11.708Z,99.90
2018-11-04T21:25:14.773Z,99.90
2018-11-04T21:27:17.760Z,99.90
2018-11-04T21:29:21.220Z,99.90
2018-11-04T21:31:24.351Z,99.90
2018-11-04T21:33:27.288Z,99.90
2018-11-04T21:35:30.696Z,99.90
2018-11-04T21:37:35.111Z,99.90
2018-11-04T21:39:38.137Z,99.90
2018-11-04T21:41:41.226Z,99.90
2018-11-04T21:43:44.308Z,99.90
2018-11-04T21:45:47.246Z,99.90
2018-11-04T21:47:50.321Z,99.90
2018-11-04T21:49:53.482Z,99.90
2018-11-04T21:51:56.666Z,99.90
2018-11-04T21:53:59.722Z,99.90
2018-11-04T21:56:04.254Z,99.90
2018-11-04T21:58:12.476Z,99.90
2018-11-04T22:00:16.601Z,99.90
2018-11-04T22:02:19.832Z,99.90
2018-11-04T22:04:22.881Z,99.90
2018-11-04T22:06:25.860Z,99.90
2018-11-04T22:08:29.276Z,99.90
2018-11-04T22:10:33.036Z,99.90
2018-11-04T22:12:35.995Z,99.90
2018-11-04T22:14:39.051Z,99.90
2018-11-04T22:16:42.199Z,99.90
2018-11-04T22:18:45.579Z,99.90
2018-11-04T22:20:48.587Z,99.90
2018-11-04T22:22:51.659Z,99.90
2018-11-04T22:24:54.683Z,99.90
2018-11-04T22:26:57.706Z,99.90
2018-11-04T22:29:01.312Z,99.90
2018-11-04T22:31:05.917Z,99.90
2018-11-04T22:33:08.963Z,99.90
2018-11-04T22:35:12.134Z,99.90
2018-11-04T22:37:15.136Z,99.90
2018-11-04T22:39:18.157Z,99.90
2018-11-04T22:41:21.147Z,99.90
2018-11-04T22:43:24.155Z,99.90
2018-11-04T22:45:27.799Z,99.90
2018-11-04T22:47:30.887Z,99.90
2018-11-04T22:49:35.727Z,99.90
2018-11-04T22:51:38.716Z,99.90
2018-11-04T22:53:42.000Z,99.90
2018-11-04T22:55:45.043Z,99.90
2018-11-04T22:57:48.064Z,99.90
2018-11-04T22:59:51.122Z,99.90
2018-11-04T23:01:54.157Z,99.90
2018-11-04T23:03:57.742Z,99.90
2018-11-04T23:06:05.469Z,99.90
2018-11-04T23:08:09.062Z,99.90
2018-11-04T23:10:12.089Z,99.90
2018-11-04T23:12:15.069Z,99.90
2018-11-04T23:14:18.233Z,99.90
2018-11-04T23:16:21.243Z,99.90
2018-11-04T23:18:24.282Z,99.90
2018-11-04T23:20:27.254Z,99.90
2018-11-04T23:22:30.549Z,99.90
2018-11-04T23:24:34.783Z,99.90
2018-11-04T23:26:37.784Z,99.90
2018-11-04T23:28:40.912Z,99.90
2018-11-04T23:30:44.404Z,99.90
2018-11-04T23:32:47.787Z,99.90
2018-11-04T23:34:50.812Z,99.90
2018-11-04T23:36:53.850Z,99.90
2018-11-04T23:38:56.847Z,99.90
2018-11-04T23:40:59.863Z,99.90
2018-11-04T23:43:04.346Z,99.90
2018-11-04T23:45:09.246Z,99.90
2018-11-04T23:47:12.255Z,99.90
2018-11-04T23:49:15.231Z,99.90
2018-11-04T23:51:18.229Z,99.90
2018-11-04T23:53:21.563Z,99.90
2018-11-04T23:55:24.581Z,99.90
2018-11-04T23:57:27.543Z,99.90
2018-11-04T23:59:30.946Z,99.90
